createdAt,value
2022-10-02T00:00:36.642Z,47.19
2022-10-02T00:03:24.705Z,46.58
2022-10-02T00:06:16.531Z,46.64
2022-10-02T00:08:49.256Z,47.35
2022-10-02T00:11:44.389Z,47.50
2022-10-02T00:14:19.578Z,47.77
2022-10-02T00:16:54.343Z,47.98
2022-10-02T00:19:23.111Z,48.27
2022-10-02T00:22:51.248Z,48.45
2022-10-02T00:25:45.631Z,48.99
2022-10-02T00:28:25.370Z,49.20
2022-10-02T00:31:23.852Z,49.54
2022-10-02T00:34:15.004Z,49.75
2022-10-02T00:36:52.133Z,50.04
2022-10-02T00:39:55.331Z,50.10
2022-10-02T00:43:16.328Z,49.74
2022-10-02T00:46:23.588Z,49.20
2022-10-02T00:49:31.739Z,48.62
2022-10-02T00:52:41.754Z,48.46
2022-10-02T00:55:46.592Z,49.53
2022-10-02T00:58:44.201Z,49.98
2022-10-02T01:01:41.866Z,49.03
2022-10-02T01:04:21.250Z,48.97
2022-10-02T01:06:50.177Z,49.14
2022-10-02T01:09:19.350Z,49.64
2022-10-02T01:11:47.967Z,50.17
2022-10-02T01:14:17.124Z,50.48
2022-10-02T01:16:46.816Z,50.47
2022-10-02T01:19:37.845Z,50.49
2022-10-02T01:22:20.407Z,50.89
2022-10-02T01:24:54.159Z,51.12
2022-10-02T01:27:24.059Z,51.16
2022-10-02T01:30:08.121Z,51.30
2022-10-02T01:33:03.367Z,51.15
2022-10-02T01:35:37.548Z,51.37
2022-10-02T01:38:16.539Z,51.53
2022-10-02T01:40:45.754Z,51.83
2022-10-02T01:43:34.464Z,52.00
2022-10-02T01:46:36.593Z,52.39
2022-10-02T01:49:40.334Z,52.44
2022-10-02T01:52:39.316Z,52.54
2022-10-02T01:55:50.443Z,53.33
2022-10-02T01:58:34.077Z,53.31
2022-10-02T02:01:12.905Z,53.84
2022-10-02T02:04:16.285Z,54.23
2022-10-02T02:07:18.180Z,54.60
2022-10-02T02:10:10.457Z,54.91
2022-10-02T02:12:49.824Z,54.99
2022-10-02T02:15:29.279Z,54.91
2022-10-02T02:18:10.666Z,55.46
2022-10-02T02:20:48.856Z,56.04
2022-10-02T02:23:23.454Z,56.39
2022-10-02T02:26:00.417Z,56.52
2022-10-02T02:28:33.164Z,56.47
2022-10-02T02:31:05.919Z,56.48
2022-10-02T02:33:42.537Z,56.92
2022-10-02T02:36:17.183Z,57.11
2022-10-02T02:39:01.291Z,57.52
2022-10-02T02:41:40.047Z,57.76
2022-10-02T02:44:22.081Z,58.00
2022-10-02T02:47:20.558Z,58.40
2022-10-02T02:50:06.405Z,58.66
2022-10-02T02:52:51.351Z,58.92
2022-10-02T02:55:35.075Z,59.26
2022-10-02T02:58:30.217Z,59.40
2022-10-02T03:00:59.356Z,59.57
2022-10-02T03:03:28.137Z,59.92
2022-10-02T03:06:27.808Z,60.05
2022-10-02T03:08:56.570Z,60.21
2022-10-02T03:12:02.298Z,60.31
2022-10-02T03:14:56.365Z,60.43
2022-10-02T03:18:00.269Z,60.62
2022-10-02T03:21:04.655Z,60.68
2022-10-02T03:24:00.830Z,60.86
2022-10-02T03:26:44.180Z,61.09
2022-10-02T03:29:47.933Z,61.16
2022-10-02T03:32:19.132Z,61.36
2022-10-02T03:34:50.359Z,61.46
2022-10-02T03:37:19.536Z,61.59
2022-10-02T03:39:50.678Z,61.73
2022-10-02T03:42:27.199Z,61.71
2022-10-02T03:44:55.872Z,61.91
2022-10-02T03:47:24.562Z,62.14
2022-10-02T03:49:53.178Z,62.34
2022-10-02T03:52:24.267Z,62.46
2022-10-02T03:55:02.158Z,62.74
2022-10-02T03:57:35.616Z,62.65
2022-10-02T04:00:23.771Z,62.89
2022-10-02T04:03:12.012Z,62.96
2022-10-02T04:06:00.776Z,63.20
2022-10-02T04:08:47.073Z,63.33
2022-10-02T04:11:56.163Z,63.49
2022-10-02T04:14:40.583Z,63.80
2022-10-02T04:17:33.183Z,64.00
2022-10-02T04:20:14.165Z,64.28
2022-10-02T04:22:54.348Z,64.40
2022-10-02T04:25:37.805Z,64.51
2022-10-02T04:28:19.345Z,64.64
2022-10-02T04:30:48.169Z,64.69
2022-10-02T04:33:26.389Z,64.66
2022-10-02T04:36:11.517Z,64.75
2022-10-02T04:39:16.109Z,64.84
2022-10-02T04:42:25.154Z,65.11
2022-10-02T04:45:34.362Z,65.17
2022-10-02T04:48:46.412Z,65.27
2022-10-02T04:51:26.742Z,65.34
2022-10-02T04:54:48.097Z,65.49
2022-10-02T04:58:06.996Z,65.56
2022-10-02T05:00:56.775Z,65.94
2022-10-02T05:03:35.746Z,66.27
2022-10-02T05:06:37.773Z,66.49
2022-10-02T05:09:44.483Z,66.71
2022-10-02T05:12:54.946Z,66.86
2022-10-02T05:16:11.129Z,66.94
2022-10-02T05:19:03.285Z,66.91
2022-10-02T05:22:26.481Z,66.87
2022-10-02T05:25:53.267Z,67.06
2022-10-02T05:28:52.245Z,67.16
2022-10-02T05:31:57.324Z,67.26
2022-10-02T05:34:59.491Z,67.35
2022-10-02T05:37:57.189Z,67.53
2022-10-02T05:41:17.237Z,67.66
2022-10-02T05:44:12.895Z,67.74
2022-10-02T05:47:08.679Z,67.85
2022-10-02T05:49:45.103Z,67.98
2022-10-02T05:52:23.888Z,68.13
2022-10-02T05:55:01.279Z,68.19
2022-10-02T05:57:42.550Z,68.27
2022-10-02T06:00:36.372Z,68.14
2022-10-02T06:03:13.042Z,68.09
2022-10-02T06:06:02.409Z,68.16
2022-10-02T06:08:54.157Z,68.20
2022-10-02T06:12:10.140Z,68.03
2022-10-02T06:15:16.155Z,67.78
2022-10-02T06:18:01.575Z,67.83
2022-10-02T06:20:43.463Z,67.97
2022-10-02T06:23:20.817Z,68.15
2022-10-02T06:26:26.416Z,68.40
2022-10-02T06:29:24.920Z,68.56
2022-10-02T06:32:18.891Z,68.61
2022-10-02T06:34:48.310Z,68.69
2022-10-02T06:37:56.953Z,68.70
2022-10-02T06:40:55.637Z,68.80
2022-10-02T06:43:57.464Z,68.88
2022-10-02T06:47:08.147Z,68.88
2022-10-02T06:50:22.910Z,68.90
2022-10-02T06:53:34.847Z,69.01
2022-10-02T06:56:51.673Z,69.38
2022-10-02T07:00:23.694Z,69.50
2022-10-02T07:02:57.813Z,69.56
2022-10-02T07:05:44.143Z,69.71
2022-10-02T07:08:52.625Z,69.98
2022-10-02T07:11:56.268Z,70.10
2022-10-02T07:14:37.528Z,70.18
2022-10-02T07:17:47.809Z,70.36
2022-10-02T07:20:54.177Z,70.53
2022-10-02T07:23:51.673Z,70.69
2022-10-02T07:27:18.400Z,70.79
2022-10-02T07:30:03.656Z,70.91
2022-10-02T07:32:50.003Z,70.95
2022-10-02T07:36:15.865Z,71.00
2022-10-02T07:39:22.700Z,70.84
2022-10-02T07:42:25.946Z,70.81
2022-10-02T07:45:08.028Z,70.80
2022-10-02T07:48:06.200Z,70.78
2022-10-02T07:51:04.529Z,70.87
2022-10-02T07:53:54.496Z,70.99
2022-10-02T07:56:24.933Z,71.28
2022-10-02T07:59:05.201Z,71.40
2022-10-02T08:01:41.450Z,71.55
2022-10-02T08:04:23.959Z,71.69
2022-10-02T08:07:02.336Z,71.84
2022-10-02T08:09:49.607Z,71.90
2022-10-02T08:12:31.018Z,72.00
2022-10-02T08:15:02.540Z,71.81
2022-10-02T08:17:41.312Z,71.63
2022-10-02T08:20:45.217Z,71.59
2022-10-02T08:23:38.080Z,71.60
2022-10-02T08:26:43.416Z,71.66
2022-10-02T08:29:26.937Z,71.92
2022-10-02T08:31:57.446Z,71.95
2022-10-02T08:34:26.901Z,72.06
2022-10-02T08:37:13.671Z,72.16
2022-10-02T08:40:18.532Z,72.34
2022-10-02T08:43:09.000Z,72.60
2022-10-02T08:46:23.894Z,72.72
2022-10-02T08:49:30.394Z,72.89
2022-10-02T08:53:05.702Z,72.86
2022-10-02T08:56:19.178Z,72.88
2022-10-02T08:59:48.328Z,72.87
2022-10-02T09:03:03.063Z,72.79
2022-10-02T09:06:11.974Z,72.66
2022-10-02T09:09:10.798Z,72.70
2022-10-02T09:12:26.818Z,72.67
2022-10-02T09:15:30.063Z,72.87
2022-10-02T09:18:16.528Z,73.00
2022-10-02T09:21:02.599Z,73.11
2022-10-02T09:24:23.600Z,73.17
2022-10-02T09:27:39.666Z,73.20
2022-10-02T09:30:20.790Z,73.10
2022-10-02T09:33:43.731Z,73.05
2022-10-02T09:36:35.063Z,73.13
2022-10-02T09:39:52.903Z,73.13
2022-10-02T09:42:48.815Z,73.23
2022-10-02T09:45:33.649Z,73.27
2022-10-02T09:49:01.679Z,73.30
2022-10-02T09:52:08.857Z,73.38
2022-10-02T09:54:55.711Z,73.45
2022-10-02T09:58:09.471Z,73.44
2022-10-02T10:01:03.519Z,73.43
2022-10-02T10:03:55.610Z,73.48
2022-10-02T10:06:49.821Z,73.50
2022-10-02T10:09:49.202Z,73.50
2022-10-02T10:12:35.647Z,73.54
2022-10-02T10:15:46.513Z,73.65
2022-10-02T10:19:24.086Z,73.77
2022-10-02T10:22:46.617Z,73.80
2022-10-02T10:25:55.642Z,73.82
2022-10-02T10:29:16.922Z,73.80
2022-10-02T10:32:07.118Z,73.85
2022-10-02T10:34:53.015Z,73.80
2022-10-02T10:38:30.325Z,73.83
2022-10-02T10:41:57.933Z,73.80
2022-10-02T10:45:02.864Z,73.91
2022-10-02T10:48:18.040Z,74.00
2022-10-02T10:51:14.635Z,74.00
2022-10-02T10:54:49.044Z,74.04
2022-10-02T10:57:32.038Z,74.18
2022-10-02T11:00:21.469Z,74.21
2022-10-02T11:03:23.115Z,74.24
2022-10-02T11:06:50.706Z,74.41
2022-10-02T11:09:36.952Z,74.54
2022-10-02T11:12:29.855Z,74.57
2022-10-02T11:15:20.115Z,74.61
2022-10-02T11:18:09.947Z,74.69
2022-10-02T11:20:53.830Z,74.74
2022-10-02T11:23:45.485Z,74.78
2022-10-02T11:27:00.470Z,74.86
2022-10-02T11:29:49.034Z,75.03
2022-10-02T11:32:32.152Z,75.14
2022-10-02T11:35:59.052Z,75.27
2022-10-02T11:38:51.423Z,75.33
2022-10-02T11:41:40.412Z,75.39
2022-10-02T11:44:48.296Z,75.30
2022-10-02T11:48:09.455Z,75.30
2022-10-02T11:51:21.128Z,75.34
2022-10-02T11:54:26.690Z,75.43
2022-10-02T11:57:21.993Z,75.55
2022-10-02T12:00:45.754Z,75.62
2022-10-02T12:03:51.229Z,75.68
2022-10-02T12:07:06.842Z,75.74
2022-10-02T12:10:11.331Z,75.79
2022-10-02T12:13:17.397Z,75.81
2022-10-02T12:16:00.667Z,75.89
2022-10-02T12:18:56.837Z,75.90
2022-10-02T12:22:38.120Z,75.88
2022-10-02T12:25:47.358Z,75.87
2022-10-02T12:28:39.291Z,75.90
2022-10-02T12:31:30.217Z,75.90
2022-10-02T12:34:38.792Z,75.92
2022-10-02T12:37:58.416Z,76.03
2022-10-02T12:41:10.037Z,76.19
2022-10-02T12:44:24.537Z,76.50
2022-10-02T12:47:23.138Z,76.67
2022-10-02T12:50:09.258Z,76.67
2022-10-02T12:53:05.880Z,76.60
2022-10-02T12:56:07.817Z,76.51
2022-10-02T12:58:50.362Z,76.49
2022-10-02T13:01:57.288Z,76.51
2022-10-02T13:04:49.868Z,76.41
2022-10-02T13:07:52.431Z,76.49
2022-10-02T13:10:28.683Z,76.54
2022-10-02T13:13:35.806Z,76.65
2022-10-02T13:16:30.245Z,76.81
2022-10-02T13:19:30.832Z,76.89
2022-10-02T13:22:11.548Z,76.84
2022-10-02T13:25:25.955Z,76.90
2022-10-02T13:28:17.799Z,76.90
2022-10-02T13:31:07.059Z,76.99
2022-10-02T13:34:17.579Z,77.02
2022-10-02T13:37:20.051Z,76.90
2022-10-02T13:40:14.238Z,76.79
2022-10-02T13:43:10.960Z,76.61
2022-10-02T13:46:11.578Z,76.54
2022-10-02T13:49:07.995Z,76.50
2022-10-02T13:52:08.383Z,76.50
2022-10-02T13:55:09.028Z,76.60
2022-10-02T13:58:19.177Z,76.70
2022-10-02T14:01:20.002Z,76.76
2022-10-02T14:04:12.472Z,76.80
2022-10-02T14:06:51.899Z,76.83
2022-10-02T14:09:34.903Z,76.93
2022-10-02T14:12:23.780Z,77.05
2022-10-02T14:15:09.159Z,77.03
2022-10-02T14:18:23.074Z,77.01
2022-10-02T14:21:16.562Z,77.03
2022-10-02T14:24:55.067Z,76.99
2022-10-02T14:28:05.492Z,76.95
2022-10-02T14:31:17.089Z,76.74
2022-10-02T14:34:10.447Z,76.70
2022-10-02T14:37:20.844Z,76.70
2022-10-02T14:39:50.782Z,76.71
2022-10-02T14:43:02.234Z,76.79
2022-10-02T14:45:58.920Z,76.81
2022-10-02T14:49:11.381Z,76.89
2022-10-02T14:52:01.192Z,76.95
2022-10-02T14:54:57.905Z,76.86
2022-10-02T14:58:04.788Z,76.87
2022-10-02T15:01:12.294Z,76.76
2022-10-02T15:04:11.469Z,76.71
2022-10-02T15:07:04.981Z,76.76
2022-10-02T15:09:53.569Z,76.75
2022-10-02T15:12:45.241Z,76.80
2022-10-02T15:15:32.545Z,76.90
2022-10-02T15:18:39.929Z,76.95
2022-10-02T15:21:52.176Z,77.01
2022-10-02T15:25:17.741Z,77.09
2022-10-02T15:28:35.781Z,77.12
2022-10-02T15:31:37.355Z,77.10
2022-10-02T15:34:59.882Z,77.10
2022-10-02T15:37:50.785Z,77.00
2022-10-02T15:40:37.486Z,76.96
2022-10-02T15:43:18.303Z,76.97
2022-10-02T15:46:21.325Z,76.93
2022-10-02T15:49:13.101Z,76.99
2022-10-02T15:52:09.746Z,76.91
2022-10-02T15:54:57.625Z,76.72
2022-10-02T15:57:42.919Z,76.48
2022-10-02T16:00:17.785Z,76.14
2022-10-02T16:03:17.718Z,75.91
2022-10-02T16:06:24.206Z,75.61
2022-10-02T16:09:06.205Z,75.40
2022-10-02T16:11:59.139Z,75.30
2022-10-02T16:15:18.622Z,75.18
2022-10-02T16:18:21.366Z,74.87
2022-10-02T16:21:23.089Z,74.70
2022-10-02T16:24:25.037Z,74.64
2022-10-02T16:27:24.746Z,74.45
2022-10-02T16:30:15.584Z,74.23
2022-10-02T16:33:13.496Z,74.06
2022-10-02T16:35:54.081Z,73.83
2022-10-02T16:38:50.985Z,73.61
2022-10-02T16:41:58.463Z,73.65
2022-10-02T16:44:40.690Z,73.40
2022-10-02T16:47:29.881Z,73.12
2022-10-02T16:50:21.728Z,73.08
2022-10-02T16:53:24.274Z,72.75
2022-10-02T16:56:21.785Z,72.57
2022-10-02T16:59:28.727Z,72.46
2022-10-02T17:02:28.428Z,72.45
2022-10-02T17:05:14.061Z,72.03
2022-10-02T17:07:53.476Z,72.13
2022-10-02T17:10:50.874Z,71.90
2022-10-02T17:13:33.463Z,71.65
2022-10-02T17:16:26.317Z,71.54
2022-10-02T17:19:35.908Z,71.20
2022-10-02T17:22:15.531Z,71.19
2022-10-02T17:25:01.190Z,70.88
2022-10-02T17:28:18.190Z,70.72
2022-10-02T17:31:34.808Z,70.56
2022-10-02T17:34:22.596Z,70.19
2022-10-02T17:37:02.786Z,70.12
2022-10-02T17:39:59.111Z,70.37
2022-10-02T17:43:26.749Z,69.91
2022-10-02T17:46:43.075Z,69.61
2022-10-02T17:49:25.061Z,69.48
2022-10-02T17:52:41.900Z,68.94
2022-10-02T17:56:00.505Z,68.38
2022-10-02T17:59:10.997Z,67.67
2022-10-02T18:02:03.919Z,67.46
2022-10-02T18:05:03.038Z,67.30
2022-10-02T18:08:07.867Z,66.65
2022-10-02T18:11:09.151Z,66.38
2022-10-02T18:13:50.801Z,65.61
2022-10-02T18:16:52.648Z,65.79
2022-10-02T18:19:50.081Z,66.04
2022-10-02T18:22:45.933Z,66.08
2022-10-02T18:26:25.472Z,65.51
2022-10-02T18:29:13.399Z,65.03
2022-10-02T18:32:19.141Z,65.32
2022-10-02T18:35:22.587Z,64.97
2022-10-02T18:38:13.168Z,64.61
2022-10-02T18:41:21.626Z,63.96
2022-10-02T18:44:15.134Z,64.01
2022-10-02T18:47:27.985Z,64.35
2022-10-02T18:50:39.891Z,64.41
2022-10-02T18:54:02.699Z,63.50
2022-10-02T18:57:15.536Z,62.97
2022-10-02T18:59:58.471Z,61.54
2022-10-02T19:03:15.708Z,60.76
2022-10-02T19:06:10.619Z,60.86
2022-10-02T19:09:14.702Z,60.82
2022-10-02T19:12:22.583Z,60.52
2022-10-02T19:14:56.410Z,60.49
2022-10-02T19:17:28.185Z,59.94
2022-10-02T19:19:58.207Z,59.12
2022-10-02T19:22:28.154Z,59.64
2022-10-02T19:25:14.342Z,60.66
2022-10-02T19:27:57.668Z,59.73
2022-10-02T19:30:31.667Z,59.35
2022-10-02T19:33:12.761Z,58.59
2022-10-02T19:35:44.794Z,58.37
2022-10-02T19:38:51.968Z,59.26
2022-10-02T19:41:23.881Z,58.88
2022-10-02T19:43:56.916Z,57.60
2022-10-02T19:46:44.441Z,57.53
2022-10-02T19:49:31.395Z,56.81
2022-10-02T19:52:00.182Z,55.96
2022-10-02T19:54:38.618Z,56.61
2022-10-02T19:57:30.278Z,56.53
2022-10-02T20:00:02.321Z,55.62
2022-10-02T20:02:46.599Z,54.96
2022-10-02T20:05:29.008Z,54.45
2022-10-02T20:08:08.612Z,53.52
2022-10-02T20:10:44.272Z,52.88
2022-10-02T20:13:36.275Z,53.07
2022-10-02T20:16:46.034Z,53.52
2022-10-02T20:19:27.685Z,53.13
2022-10-02T20:22:00.073Z,53.08
2022-10-02T20:24:39.864Z,52.08
2022-10-02T20:27:22.541Z,51.72
2022-10-02T20:30:00.504Z,51.33
2022-10-02T20:32:35.640Z,50.74
2022-10-02T20:35:40.925Z,50.35
2022-10-02T20:38:32.109Z,49.84
2022-10-02T20:41:12.791Z,49.27
2022-10-02T20:44:05.026Z,49.11
2022-10-02T20:47:22.764Z,49.62
2022-10-02T20:50:27.838Z,47.76
2022-10-02T20:53:17.561Z,46.75
2022-10-02T20:56:39.743Z,46.82
2022-10-02T20:59:53.940Z,47.38
2022-10-02T21:02:40.528Z,47.54
2022-10-02T21:05:42.291Z,47.54
2022-10-02T21:09:02.316Z,45.92
2022-10-02T21:11:52.218Z,45.72
2022-10-02T21:14:35.902Z,45.33
2022-10-02T21:17:31.798Z,44.77
2022-10-02T21:20:58.955Z,43.88
2022-10-02T21:24:14.750Z,43.21
2022-10-02T21:27:37.019Z,42.66
2022-10-02T21:30:20.870Z,42.20
2022-10-02T21:33:14.556Z,41.03
2022-10-02T21:35:58.174Z,40.05
2022-10-02T21:39:02.463Z,39.87
2022-10-02T21:42:04.039Z,40.27
2022-10-02T21:45:14.286Z,39.29
2022-10-02T21:48:14.429Z,38.70
2022-10-02T21:51:12.415Z,37.84
2022-10-02T21:53:53.426Z,37.45
2022-10-02T21:56:32.925Z,36.68
2022-10-02T21:59:48.697Z,36.59
2022-10-02T22:02:55.273Z,37.05
2022-10-02T22:06:18.861Z,36.41
2022-10-02T22:09:32.245Z,37.14
2022-10-02T22:12:19.124Z,36.97
2022-10-02T22:15:34.882Z,36.56
2022-10-02T22:19:08.257Z,36.43
2022-10-02T22:22:11.517Z,35.57
2022-10-02T22:25:02.767Z,34.71
2022-10-02T22:28:14.108Z,34.68
2022-10-02T22:31:17.017Z,34.06
2022-10-02T22:34:22.458Z,34.76
2022-10-02T22:37:18.952Z,34.71
2022-10-02T22:40:30.974Z,34.98
2022-10-02T22:43:09.331Z,34.30
2022-10-02T22:45:53.422Z,34.60
2022-10-02T22:48:36.774Z,34.64
2022-10-02T22:51:21.254Z,35.51
2022-10-02T22:54:15.419Z,35.62
2022-10-02T22:57:02.750Z,35.86
2022-10-02T22:59:47.100Z,34.63
2022-10-02T23:02:24.290Z,34.02
2022-10-02T23:05:27.953Z,34.66
2022-10-02T23:08:06.475Z,36.06
2022-10-02T23:10:56.080Z,35.32
2022-10-02T23:13:37.217Z,35.97
2022-10-02T23:16:35.571Z,36.08
2022-10-02T23:19:23.278Z,36.73
2022-10-02T23:21:58.496Z,36.85
2022-10-02T23:25:18.624Z,37.35
2022-10-02T23:27:55.553Z,37.65
2022-10-02T23:30:26.096Z,38.03
2022-10-02T23:33:04.111Z,38.02
2022-10-02T23:35:57.434Z,37.75
2022-10-02T23:38:46.033Z,37.26
2022-10-02T23:41:48.933Z,36.75
2022-10-02T23:44:41.933Z,37.08
2022-10-02T23:47:35.563Z,36.33
2022-10-02T23:50:20.042Z,36.23
2022-10-02T23:54:01.630Z,35.75
2022-10-02T23:56:51.990Z,35.14
2022-10-02T23:59:44.540Z,35.03
